Time;durP1;ratioP1;P1;durP2;ratioP2;P2;SDS_P1;SDS_P2;PMS_P1;PMS_P2;Temp;Humidity;BMP_temperature;BMP_pressure;BME280_temperature;BME280_humidity;BME280_pressure;Samples;Min_cycle;Max_cycle;Signal;HPM_P1;HPM_P2
2022/12/08 00:01:46;;;;;;;34.28;26.50;;;;;;;2.77;100.00;101098.16;5260537;28;20025;-87
2022/12/08 00:04:18;;;;;;;35.25;26.60;;;;;;;2.79;100.00;101096.31;5280254;28;20045;-86
2022/12/08 00:09:40;;;;;;;34.85;26.02;;;;;;;2.83;100.00;101095.22;5269118;28;20037;-86
2022/12/08 00:12:15;;;;;;;34.25;26.92;;;;;;;2.83;100.00;101095.22;5273435;28;20100;-87
2022/12/08 00:14:48;;;;;;;41.05;26.92;;;;;;;2.73;100.00;101086.97;5272403;28;20032;-86
2022/12/08 00:17:19;;;;;;;40.53;28.58;;;;;;;2.70;100.00;101081.00;5255912;28;20018;-86
2022/12/08 00:19:51;;;;;;;39.42;27.90;;;;;;;2.71;100.00;101085.38;5260145;28;20104;-86
2022/12/08 00:22:22;;;;;;;39.50;28.55;;;;;;;2.69;100.00;101080.16;5263810;28;20022;-86
2022/12/08 00:24:54;;;;;;;41.55;28.77;;;;;;;2.71;100.00;101072.19;5281854;28;20049;-86
2022/12/08 00:27:25;;;;;;;43.47;29.35;;;;;;;2.71;100.00;101062.50;5284156;28;20026;-86
2022/12/08 00:29:56;;;;;;;45.85;32.15;;;;;;;2.72;100.00;101073.88;5269097;28;20025;-86
2022/12/08 00:32:28;;;;;;;45.70;31.35;;;;;;;2.70;100.00;101059.94;5269659;28;20060;-86
2022/12/08 00:34:59;;;;;;;48.53;32.38;;;;;;;2.70;100.00;101067.84;5269245;28;20489;-86
2022/12/08 00:37:31;;;;;;;49.38;33.20;;;;;;;2.73;100.00;101065.88;5277014;28;20065;-86
2022/12/08 00:40:02;;;;;;;48.28;32.63;;;;;;;2.77;100.00;101056.91;5281169;28;20505;-86
2022/12/08 00:42:34;;;;;;;46.40;32.63;;;;;;;2.74;100.00;101067.59;5282851;28;20376;-86
2022/12/08 00:45:05;;;;;;;41.97;29.48;;;;;;;2.83;100.00;101061.78;5282982;28;20037;-87
2022/12/08 00:47:37;;;;;;;52.08;34.22;;;;;;;2.79;100.00;101060.28;5295925;28;20092;-86
2022/12/08 00:50:09;;;;;;;45.70;30.92;;;;;;;2.78;100.00;101055.94;5294001;28;20052;-86
2022/12/08 00:52:40;;;;;;;50.38;35.70;;;;;;;2.76;100.00;101051.72;5301122;28;20041;-86
2022/12/08 00:55:12;;;;;;;49.80;35.28;;;;;;;2.67;100.00;101050.44;5284515;28;20025;-86
2022/12/08 00:57:43;;;;;;;49.13;35.15;;;;;;;2.69;100.00;101050.34;5281210;28;20220;-86
2022/12/08 01:00:14;;;;;;;50.17;34.97;;;;;;;2.69;100.00;101045.94;5285757;28;20026;-86
2022/12/08 01:02:46;;;;;;;51.45;36.53;;;;;;;2.70;100.00;101038.88;5276853;28;20021;-86
2022/12/08 01:05:17;;;;;;;51.42;38.13;;;;;;;2.71;100.00;101044.06;5280965;28;20063;-86
2022/12/08 01:07:49;;;;;;;47.75;33.20;;;;;;;2.63;100.00;101033.13;5275721;28;20444;-87
2022/12/08 01:10:20;;;;;;;49.30;35.50;;;;;;;2.65;100.00;101040.00;5276346;28;20033;-86
2022/12/08 01:12:51;;;;;;;44.58;31.92;;;;;;;2.71;100.00;101035.31;5275471;28;20033;-87
2022/12/08 01:15:23;;;;;;;51.75;32.63;;;;;;;2.77;100.00;101030.56;5272089;28;20032;-86
2022/12/08 01:17:54;;;;;;;44.88;30.08;;;;;;;2.75;100.00;101034.19;5275014;28;20110;-87
2022/12/08 01:20:26;;;;;;;41.83;28.48;;;;;;;2.76;100.00;101028.84;5269140;28;20034;-86
2022/12/08 01:22:57;;;;;;;36.90;27.30;;;;;;;2.75;100.00;101021.03;5273073;28;20025;-86
2022/12/08 01:25:28;;;;;;;39.17;27.42;;;;;;;2.75;100.00;101026.28;5275405;28;20109;-86
2022/12/08 01:28:00;;;;;;;35.50;26.55;;;;;;;2.78;100.00;101026.13;5256448;28;20021;-86
2022/12/08 01:30:31;;;;;;;36.33;24.90;;;;;;;2.74;100.00;101020.19;5260525;28;20025;-86
2022/12/08 01:33:02;;;;;;;35.53;24.33;;;;;;;2.75;100.00;101026.28;5253007;28;20049;-86
2022/12/08 01:35:34;;;;;;;32.08;23.48;;;;;;;2.78;100.00;101028.75;5259706;28;20017;-86
2022/12/08 01:38:05;;;;;;;33.53;24.05;;;;;;;2.84;100.00;101025.78;5266615;28;20022;-87
2022/12/08 01:40:37;;;;;;;32.28;22.40;;;;;;;2.83;100.00;101030.19;5267193;28;20033;-86
2022/12/08 01:43:15;;;;;;;28.70;22.15;;;;;;;2.89;100.00;101025.50;5266307;28;20029;-86
2022/12/08 01:45:47;;;;;;;30.58;21.40;;;;;;;2.87;100.00;101014.22;5262621;28;20010;-85
2022/12/08 01:48:26;;;;;;;28.63;20.67;;;;;;;2.93;100.00;101017.34;5264203;28;20120;-86
2022/12/08 01:50:58;;;;;;;27.55;19.95;;;;;;;2.95;100.00;101015.47;5270580;28;20093;-86
2022/12/08 01:53:31;;;;;;;28.30;21.08;;;;;;;2.94;100.00;101018.19;5262103;28;20026;-86
2022/12/08 01:56:12;;;;;;;30.20;22.02;;;;;;;2.94;100.00;101008.47;5243856;28;20021;-86
2022/12/08 01:58:48;;;;;;;27.13;20.13;;;;;;;2.93;100.00;101013.84;5252918;28;20119;-86
2022/12/08 02:01:20;;;;;;;30.70;22.40;;;;;;;2.93;100.00;101013.84;5236443;28;20033;-87
2022/12/08 02:03:58;;;;;;;27.90;20.92;;;;;;;2.97;100.00;101010.94;5238458;28;20029;-86
2022/12/08 02:06:37;;;;;;;25.08;19.75;;;;;;;2.97;100.00;101008.31;5253682;28;20112;-86
2022/12/08 02:09:08;;;;;;;26.45;20.90;;;;;;;2.95;100.00;101004.91;5236913;28;20037;-87
2022/12/08 02:11:40;;;;;;;26.13;20.50;;;;;;;2.95;100.00;100998.81;5254156;28;20108;-86
2022/12/08 02:14:12;;;;;;;26.88;20.40;;;;;;;2.96;100.00;100995.22;5235104;28;20447;-86
2022/12/08 02:17:04;;;;;;;29.00;20.95;;;;;;;2.90;100.00;100999.06;5249737;28;20110;-86
2022/12/08 02:19:42;;;;;;;26.35;19.40;;;;;;;2.92;100.00;100991.06;5235555;28;20076;-86
2022/12/08 02:22:26;;;;;;;23.88;18.85;;;;;;;2.90;100.00;100996.44;5254996;28;20052;-86
2022/12/08 02:25:10;;;;;;;24.08;19.35;;;;;;;2.91;100.00;100994.63;5241035;28;20143;-87
2022/12/08 02:27:48;;;;;;;27.77;18.92;;;;;;;2.90;100.00;100988.53;5254513;28;20075;-85
2022/12/08 02:30:24;;;;;;;26.52;17.77;;;;;;;2.86;100.00;100983.50;5252218;28;20104;-86
2022/12/08 02:33:19;;;;;;;23.67;16.58;;;;;;;2.90;100.00;100983.25;5252226;28;20033;-86
2022/12/08 02:35:57;;;;;;;20.70;14.77;;;;;;;2.84;100.00;100966.03;5250772;28;20809;-86
2022/12/08 02:38:31;;;;;;;24.35;15.52;;;;;;;2.89;100.00;100967.53;5270643;28;20478;-87
2022/12/08 02:41:31;;;;;;;20.45;15.50;;;;;;;2.93;100.00;100969.91;5252688;28;21290;-86
2022/12/08 02:44:20;;;;;;;19.98;14.75;;;;;;;2.92;100.00;100962.09;5254479;28;20025;-86
2022/12/08 02:46:56;;;;;;;18.83;13.23;;;;;;;2.91;100.00;100961.25;5250204;28;20029;-86
2022/12/08 02:49:31;;;;;;;19.05;13.35;;;;;;;2.93;100.00;100964.63;5269146;28;20121;-86
2022/12/08 02:52:12;;;;;;;20.20;12.45;;;;;;;2.98;100.00;100954.69;5252869;28;20394;-86
2022/12/08 02:54:56;;;;;;;18.30;14.30;;;;;;;2.97;100.00;100947.69;5267112;28;20410;-86
2022/12/08 02:58:09;;;;;;;19.83;14.20;;;;;;;3.02;100.00;100944.81;5252915;28;20045;-87
2022/12/08 03:01:13;;;;;;;18.92;14.48;;;;;;;3.01;100.00;100943.94;5269600;28;20060;-87
2022/12/08 03:03:58;;;;;;;16.92;14.02;;;;;;;3.03;100.00;100946.47;5249793;28;20024;-86
2022/12/08 03:06:40;;;;;;;19.20;14.20;;;;;;;3.01;100.00;100936.03;5266459;28;20057;-86
2022/12/08 03:09:26;;;;;;;21.20;14.00;;;;;;;3.02;100.00;100931.63;5271766;28;20060;-87
2022/12/08 03:12:00;;;;;;;17.73;15.68;;;;;;;3.06;100.00;100940.19;5274572;28;20083;-86
2022/12/08 03:14:34;;;;;;;19.15;14.40;;;;;;;3.06;100.00;100937.56;5259724;28;20450;-89
2022/12/08 03:17:07;;;;;;;21.02;16.38;;;;;;;3.03;100.00;100933.31;5258567;28;20422;-86
2022/12/08 03:19:41;;;;;;;19.63;14.27;;;;;;;3.05;100.00;100934.09;5255381;28;20034;-86
2022/12/08 03:22:16;;;;;;;21.70;16.45;;;;;;;3.02;100.00;100924.56;5256092;28;20553;-86
2022/12/08 03:24:48;;;;;;;21.55;17.33;;;;;;;3.04;100.00;100927.09;5256323;28;20810;-87
2022/12/08 03:27:23;;;;;;;20.15;16.98;;;;;;;3.08;100.00;100923.34;5257883;28;20029;-86
2022/12/08 03:29:57;;;;;;;25.15;17.42;;;;;;;3.06;100.00;100919.09;5260099;28;20124;-86
2022/12/08 03:32:43;;;;;;;26.38;20.00;;;;;;;3.03;100.00;100913.09;5272450;28;20065;-86
2022/12/08 03:35:18;;;;;;;27.42;20.80;;;;;;;3.15;100.00;100913.28;5274761;28;20041;-87
2022/12/08 03:38:09;;;;;;;29.88;22.80;;;;;;;3.16;100.00;100918.47;5274430;28;20123;-86
2022/12/08 03:40:41;;;;;;;32.05;23.27;;;;;;;3.12;100.00;100903.78;5257354;28;20044;-86
2022/12/08 03:43:12;;;;;;;36.97;26.35;;;;;;;3.15;100.00;100911.47;5266178;28;20038;-87
2022/12/08 03:45:43;;;;;;;43.20;29.73;;;;;;;3.14;100.00;100904.53;5279946;28;20026;-86
2022/12/08 03:48:15;;;;;;;45.45;30.17;;;;;;;3.16;100.00;100894.72;5257539;28;20103;-86
2022/12/08 03:50:46;;;;;;;49.75;32.63;;;;;;;3.16;100.00;100901.81;5258981;28;20033;-87
2022/12/08 03:53:18;;;;;;;53.00;33.17;;;;;;;3.21;100.00;100900.56;5255399;28;20021;-87
2022/12/08 03:55:49;;;;;;;53.55;35.67;;;;;;;3.23;100.00;100889.94;5263747;28;20136;-87
2022/12/08 03:58:21;;;;;;;57.17;34.85;;;;;;;3.22;100.00;100898.78;5274520;28;20026;-86
2022/12/08 04:00:52;;;;;;;60.42;36.92;;;;;;;3.18;100.00;100890.22;5276634;28;20013;-86
2022/12/08 04:03:23;;;;;;;57.05;33.78;;;;;;;3.22;100.00;100894.34;5274980;28;20154;-85
2022/12/08 04:05:55;;;;;;;62.80;39.55;;;;;;;3.24;100.00;100890.78;5283250;28;20029;-86
2022/12/08 04:08:27;;;;;;;62.10;38.70;;;;;;;3.21;100.00;100879.50;5274839;28;20022;-86
2022/12/08 04:10:58;;;;;;;58.33;35.65;;;;;;;3.21;100.00;100874.22;5275752;28;20485;-85
2022/12/08 04:13:29;;;;;;;61.25;37.28;;;;;;;3.24;100.00;100882.88;5274085;28;20103;-86
2022/12/08 04:16:01;;;;;;;57.40;35.97;;;;;;;3.22;100.00;100875.88;5260425;28;20036;-85
2022/12/08 04:18:34;;;;;;;54.38;34.80;;;;;;;3.24;100.00;100888.16;5255392;28;20036;-85
2022/12/08 04:21:05;;;;;;;52.72;34.53;;;;;;;3.24;100.00;100881.06;5253213;28;20148;-86
2022/12/08 04:23:37;;;;;;;54.65;34.60;;;;;;;3.20;100.00;100888.31;5257392;28;20475;-87
2022/12/08 04:26:09;;;;;;;50.10;32.97;;;;;;;3.22;100.00;100885.59;5260425;28;20439;-86
2022/12/08 04:28:41;;;;;;;50.10;30.30;;;;;;;3.21;100.00;100876.00;5274806;28;20064;-86
2022/12/08 04:31:12;;;;;;;47.63;30.15;;;;;;;3.24;100.00;100867.91;5257351;28;20338;-86
2022/12/08 04:33:44;;;;;;;44.90;29.02;;;;;;;3.21;100.00;100862.84;5258623;28;20036;-87
2022/12/08 04:36:15;;;;;;;40.75;26.90;;;;;;;3.27;100.00;100869.50;5256772;28;20064;-86
2022/12/08 04:38:47;;;;;;;38.30;25.08;;;;;;;3.30;100.00;100864.91;5250908;28;20601;-86
2022/12/08 04:41:18;;;;;;;36.97;24.27;;;;;;;3.23;100.00;100866.22;5259287;28;20048;-87
2022/12/08 04:43:49;;;;;;;30.77;21.77;;;;;;;3.22;100.00;100854.81;5272807;28;21440;-87
2022/12/08 04:46:21;;;;;;;32.20;21.33;;;;;;;3.24;100.00;100853.88;5254879;28;20037;-87
2022/12/08 04:48:52;;;;;;;30.90;20.45;;;;;;;3.19;100.00;100838.31;5263308;28;20028;-86
2022/12/08 04:51:26;;;;;;;26.02;18.52;;;;;;;3.15;100.00;100837.66;5255880;28;20397;-87
2022/12/08 04:53:57;;;;;;;28.90;16.75;;;;;;;3.13;100.00;100852.75;5257439;28;20494;-86
2022/12/08 04:56:28;;;;;;;23.50;16.35;;;;;;;3.15;100.00;100852.66;5258488;28;20089;-86
2022/12/08 04:59:00;;;;;;;23.85;14.65;;;;;;;3.10;100.00;100839.75;5270851;28;20604;-86
2022/12/08 05:01:31;;;;;;;16.65;12.18;;;;;;;3.14;100.00;100840.44;5255937;28;20116;-86
2022/12/08 05:04:03;;;;;;;16.42;10.27;;;;;;;3.12;100.00;100845.78;5257761;28;20103;-87
2022/12/08 05:06:34;;;;;;;11.70;8.07;;;;;;;3.08;100.00;100844.28;5256323;28;20022;-86
2022/12/08 05:09:05;;;;;;;9.98;6.95;;;;;;;3.06;100.00;100848.78;5256330;28;20505;-86
2022/12/08 05:11:40;;;;;;;9.27;6.10;;;;;;;3.05;100.00;100862.94;5256988;28;20029;-87
2022/12/08 05:14:14;;;;;;;8.23;5.50;;;;;;;3.03;100.00;100856.88;5260975;28;20099;-87
2022/12/08 05:16:46;;;;;;;5.82;4.82;;;;;;;3.03;100.00;100862.16;5256813;28;20025;-87
2022/12/08 05:19:17;;;;;;;8.98;5.75;;;;;;;3.03;100.00;100860.38;5260376;28;20327;-86
2022/12/08 05:21:49;;;;;;;8.82;5.70;;;;;;;3.01;100.00;100854.34;5255986;28;20029;-86
2022/12/08 05:24:20;;;;;;;10.40;5.88;;;;;;;3.03;100.00;100846.34;5259475;28;20058;-86
2022/12/08 05:26:52;;;;;;;8.52;5.93;;;;;;;3.03;100.00;100854.25;5241544;28;20029;-86
2022/12/08 05:29:23;;;;;;;8.50;6.30;;;;;;;3.02;100.00;100842.03;5258153;28;20033;-87
2022/12/08 05:31:54;;;;;;;10.52;7.32;;;;;;;3.03;100.00;100844.56;5256490;28;20061;-87
2022/12/08 05:34:26;;;;;;;9.93;7.50;;;;;;;3.02;100.00;100837.59;5238721;28;20021;-86
2022/12/08 05:36:57;;;;;;;8.88;7.03;;;;;;;3.01;100.00;100842.94;5236830;28;20063;-87
2022/12/08 05:39:29;;;;;;;8.95;6.88;;;;;;;3.04;100.00;100842.78;5258493;28;20924;-85
2022/12/08 05:42:00;;;;;;;9.70;5.97;;;;;;;3.00;100.00;100836.00;5243667;28;20056;-86
2022/12/08 05:44:38;;;;;;;7.43;5.97;;;;;;;3.03;100.00;100848.97;5241077;28;20167;-86
2022/12/08 05:47:09;;;;;;;8.10;4.40;;;;;;;3.03;100.00;100838.44;5240827;28;20099;-87
2022/12/08 05:49:41;;;;;;;8.98;4.13;;;;;;;2.94;100.00;100847.75;5247250;28;20456;-87
2022/12/08 05:52:12;;;;;;;3.70;2.00;;;;;;;2.93;100.00;100840.78;5240345;28;20108;-86
2022/12/08 05:54:44;;;;;;;3.72;1.80;;;;;;;2.86;100.00;100847.38;5239416;28;20465;-86
2022/12/08 05:57:16;;;;;;;5.35;2.53;;;;;;;2.81;100.00;100834.47;5240674;28;20025;-86
2022/12/08 05:59:47;;;;;;;5.32;3.08;;;;;;;2.78;100.00;100842.56;5238831;28;20033;-86
2022/12/08 06:02:19;;;;;;;5.07;3.42;;;;;;;2.78;100.00;100842.56;5240760;28;20367;-86
2022/12/08 06:04:53;;;;;;;7.45;3.28;;;;;;;2.77;100.00;100835.59;5241331;28;20086;-88
2022/12/08 06:07:25;;;;;;;6.53;3.50;;;;;;;2.79;100.00;100832.88;5259999;28;20025;-87
2022/12/08 06:09:57;;;;;;;6.05;3.67;;;;;;;2.80;100.00;100830.13;5258503;28;20025;-87
2022/12/08 06:12:28;;;;;;;7.35;4.53;;;;;;;2.84;100.00;100828.19;5239132;28;20099;-87
2022/12/08 06:15:00;;;;;;;4.68;4.13;;;;;;;2.84;100.00;100830.81;5247707;28;20025;-88
2022/12/08 06:17:31;;;;;;;7.53;3.67;;;;;;;2.79;100.00;100823.19;5260751;28;20113;-86
2022/12/08 06:20:03;;;;;;;6.78;3.70;;;;;;;2.74;100.00;100819.97;5245251;28;20020;-87
2022/12/08 06:22:35;;;;;;;6.72;3.88;;;;;;;2.75;100.00;100824.31;5264675;28;20029;-88
2022/12/08 06:25:08;;;;;;;8.00;3.70;;;;;;;2.79;100.00;100828.47;5260990;28;20406;-87
2022/12/08 06:27:42;;;;;;;6.22;3.80;;;;;;;2.80;100.00;100834.56;5242534;28;20033;-88
2022/12/08 06:30:16;;;;;;;6.82;3.80;;;;;;;2.83;100.00;100831.75;5261197;28;20025;-86
2022/12/08 06:32:48;;;;;;;7.07;3.80;;;;;;;2.82;100.00;100828.28;5262877;28;20049;-86
2022/12/08 06:35:19;;;;;;;8.43;3.63;;;;;;;2.83;100.00;100827.31;5259289;28;20613;-86
2022/12/08 06:37:50;;;;;;;5.10;3.25;;;;;;;2.97;100.00;100823.84;5274014;28;20519;-86
2022/12/08 06:40:22;;;;;;;8.43;4.10;;;;;;;3.02;100.00;100831.47;5248637;28;20048;-86
2022/12/08 06:42:53;;;;;;;10.18;4.50;;;;;;;3.14;100.00;100819.34;5273996;28;20045;-86
2022/12/08 06:45:25;;;;;;;10.10;4.47;;;;;;;3.17;100.00;100832.31;5239165;28;20032;-86
2022/12/08 06:47:56;;;;;;;9.18;4.80;;;;;;;3.43;100.00;100827.22;5258116;28;20026;-86
2022/12/08 06:50:28;;;;;;;8.27;5.38;;;;;;;3.16;100.00;100830.63;5254814;28;20056;-86
2022/12/08 06:53:00;;;;;;;9.05;5.82;;;;;;;3.44;100.00;100826.25;5239127;28;20025;-86
2022/12/08 06:55:32;;;;;;;7.22;5.78;;;;;;;3.40;100.00;100828.22;5236685;28;20029;-86
2022/12/08 06:58:03;;;;;;;13.38;6.00;;;;;;;3.18;100.00;100820.84;5236613;28;20481;-86
2022/12/08 07:00:35;;;;;;;9.27;5.63;;;;;;;3.22;100.00;100820.53;5257572;28;20031;-85
2022/12/08 07:03:07;;;;;;;6.38;5.30;;;;;;;3.13;100.00;100818.47;5241945;28;20462;-84
2022/12/08 07:05:39;;;;;;;8.77;5.75;;;;;;;3.13;100.00;100821.13;5255977;28;20169;-85
2022/12/08 07:08:10;;;;;;;10.68;6.93;;;;;;;3.01;100.00;100814.81;5245023;28;20116;-86
2022/12/08 07:10:42;;;;;;;10.85;8.02;;;;;;;2.95;100.00;100817.00;5245981;28;20056;-85
2022/12/08 07:13:13;;;;;;;12.73;8.55;;;;;;;2.94;100.00;100818.75;5266854;28;20101;-85
2022/12/08 07:15:44;;;;;;;14.48;10.40;;;;;;;2.93;100.00;100826.75;5235115;28;20028;-84
2022/12/08 07:18:16;;;;;;;17.10;11.18;;;;;;;2.92;100.00;100828.56;5258652;28;20328;-84
2022/12/08 07:20:47;;;;;;;18.35;12.43;;;;;;;2.95;100.00;100825.72;5240611;28;20030;-85
2022/12/08 07:23:18;;;;;;;23.02;16.67;;;;;;;2.89;100.00;100815.56;5237029;28;20029;-84
2022/12/08 07:25:50;;;;;;;24.98;17.70;;;;;;;2.95;100.00;100823.09;5254271;28;20421;-85
2022/12/08 07:28:21;;;;;;;30.42;18.58;;;;;;;2.91;100.00;100829.50;5260637;28;20021;-84
2022/12/08 07:30:52;;;;;;;32.33;20.13;;;;;;;2.93;100.00;100826.75;5239662;28;20094;-85
2022/12/08 07:33:25;;;;;;;25.67;19.30;;;;;;;2.94;100.00;100833.72;5255027;28;20105;-85
2022/12/08 07:35:59;;;;;;;36.45;24.65;;;;;;;2.99;100.00;100839.56;5259687;28;20039;-85
2022/12/08 07:38:31;;;;;;;41.22;27.52;;;;;;;2.93;100.00;100827.63;5275303;28;20049;-85
2022/12/08 07:41:03;;;;;;;43.67;28.23;;;;;;;3.00;100.00;100822.81;5239604;28;20811;-85
2022/12/08 07:43:34;;;;;;;49.65;33.10;;;;;;;3.02;100.00;100828.84;5245317;28;20034;-86
2022/12/08 07:46:05;;;;;;;56.08;36.00;;;;;;;2.93;100.00;100819.72;5260113;28;20022;-85
2022/12/08 07:48:37;;;;;;;54.00;34.08;;;;;;;2.93;100.00;100818.84;5258294;28;20092;-85
2022/12/08 07:51:10;;;;;;;57.60;36.90;;;;;;;2.96;100.00;100823.94;5259282;28;20144;-85
2022/12/08 07:53:44;;;;;;;59.33;37.08;;;;;;;2.94;100.00;100823.19;5241942;28;20424;-85
2022/12/08 07:56:16;;;;;;;71.50;41.15;;;;;;;2.93;100.00;100826.75;5239358;28;20445;-86
2022/12/08 07:58:47;;;;;;;62.35;39.90;;;;;;;2.89;100.00;100826.09;5241513;28;20034;-86
2022/12/08 08:01:30;;;;;;;53.25;35.75;;;;;;;2.87;100.00;100838.53;5257240;28;20458;-85
2022/12/08 08:04:04;;;;;;;49.47;34.08;;;;;;;2.81;100.00;100833.63;5264169;28;20080;-85
2022/12/08 08:06:36;;;;;;;38.85;23.85;;;;;;;2.71;100.00;100829.84;5246289;28;20104;-86
2022/12/08 08:09:09;;;;;;;28.65;20.92;;;;;;;2.71;100.00;100835.13;5269245;28;20044;-85
2022/12/08 08:11:40;;;;;;;30.05;19.05;;;;;;;2.65;100.00;100831.09;5257911;28;20526;-85
2022/12/08 08:14:12;;;;;;;30.65;21.77;;;;;;;2.75;100.00;100834.00;5281163;28;20052;-85
2022/12/08 08:16:46;;;;;;;29.65;22.00;;;;;;;2.67;100.00;100836.25;5245484;28;20080;-85
2022/12/08 08:19:17;;;;;;;34.30;22.58;;;;;;;2.70;100.00;100833.41;5234447;28;20079;-85
2022/12/08 08:21:49;;;;;;;34.03;21.10;;;;;;;2.69;100.00;100839.66;5264807;28;20421;-84
2022/12/08 08:24:22;;;;;;;25.52;19.70;;;;;;;2.72;100.00;100842.06;5243195;28;20030;-85
2022/12/08 08:26:54;;;;;;;26.77;18.10;;;;;;;2.75;100.00;100840.13;5275109;28;20132;-85
2022/12/08 08:29:25;;;;;;;25.40;17.13;;;;;;;2.79;100.00;100841.63;5266369;28;20105;-84
2022/12/08 08:31:57;;;;;;;18.60;13.55;;;;;;;2.83;100.00;100842.28;5265962;28;20470;-85
2022/12/08 08:34:28;;;;;;;15.57;11.60;;;;;;;2.80;100.00;100838.03;5263366;28;20449;-85
2022/12/08 08:37:02;;;;;;;17.90;11.95;;;;;;;2.80;100.00;100827.50;5245656;28;20033;-85
2022/12/08 08:39:34;;;;;;;17.52;11.10;;;;;;;2.82;100.00;100837.94;5263308;28;20032;-85
2022/12/08 08:42:05;;;;;;;15.23;10.18;;;;;;;2.82;100.00;100838.81;5245460;28;20030;-85
2022/12/08 08:44:37;;;;;;;11.50;9.85;;;;;;;2.82;100.00;100836.19;5244940;28;20386;-85
2022/12/08 08:47:09;;;;;;;11.93;9.85;;;;;;;2.87;100.00;100821.88;5244976;28;20041;-85
2022/12/08 08:49:41;;;;;;;12.25;8.57;;;;;;;2.88;100.00;100823.59;5245530;28;20033;-84
2022/12/08 08:52:13;;;;;;;15.02;8.00;;;;;;;2.87;100.00;100827.97;5245591;28;20028;-85
2022/12/08 08:54:44;;;;;;;12.40;7.68;;;;;;;2.91;100.00;100829.50;5263018;28;20022;-85
2022/12/08 08:57:16;;;;;;;10.60;8.05;;;;;;;2.92;100.00;100831.19;5245166;28;20043;-84
2022/12/08 08:59:48;;;;;;;12.90;7.97;;;;;;;2.99;100.00;100827.22;5243579;28;20069;-84
2022/12/08 09:02:20;;;;;;;14.48;10.40;;;;;;;3.01;100.00;100829.78;5223662;28;20088;-85
2022/12/08 09:04:52;;;;;;;35.75;24.85;;;;;;;3.07;100.00;100831.19;5224857;28;20045;-85
2022/12/08 09:07:23;;;;;;;42.67;27.15;;;;;;;3.03;100.00;100826.13;5228302;28;20061;-85
2022/12/08 09:09:54;;;;;;;42.50;27.15;;;;;;;3.09;100.00;100824.06;5254597;28;20037;-83
2022/12/08 09:12:26;;;;;;;41.10;28.13;;;;;;;3.08;100.00;100824.97;5251180;28;20022;-85
2022/12/08 09:14:58;;;;;;;38.53;25.63;;;;;;;3.16;100.00;100818.28;5247525;28;20101;-84
2022/12/08 09:17:29;;;;;;;42.72;26.25;;;;;;;3.20;100.00;100822.41;5245417;28;20026;-87
2022/12/08 09:20:01;;;;;;;31.02;22.88;;;;;;;3.25;100.00;100821.31;5225604;28;20622;-85
2022/12/08 09:22:33;;;;;;;33.70;22.85;;;;;;;3.25;100.00;100822.16;5245552;28;20394;-85
2022/12/08 09:25:05;;;;;;;33.00;23.90;;;;;;;3.23;100.00;100826.69;5244262;28;20073;-84
2022/12/08 09:27:36;;;;;;;30.52;23.15;;;;;;;3.23;100.00;100818.75;5244975;28;20071;-84
2022/12/08 09:30:08;;;;;;;31.13;22.52;;;;;;;3.32;100.00;100825.25;5244109;28;20394;-85
2022/12/08 09:32:39;;;;;;;33.03;21.10;;;;;;;3.35;100.00;100811.88;5243170;28;20367;-84
2022/12/08 09:35:12;;;;;;;27.95;19.63;;;;;;;3.39;100.00;100824.75;5244673;28;20367;-84
2022/12/08 09:37:43;;;;;;;24.58;18.50;;;;;;;3.32;100.00;100818.19;5244692;28;20022;-85
2022/12/08 09:40:18;;;;;;;26.98;17.15;;;;;;;3.40;100.00;100818.56;5243805;28;20083;-85
2022/12/08 09:43:19;;;;;;;40.47;18.45;;;;;;;3.59;100.00;100822.66;5243898;28;20067;-84
2022/12/08 09:45:52;;;;;;;30.35;18.35;;;;;;;3.53;100.00;100828.31;5185420;28;20042;-84
2022/12/08 09:48:31;;;;;;;45.70;21.50;;;;;;;3.51;100.00;100828.41;5256038;28;20026;-84
2022/12/08 09:51:04;;;;;;;59.40;29.25;;;;;;;3.41;100.00;100819.41;5244057;28;20022;-86
2022/12/08 09:53:38;;;;;;;46.42;31.67;;;;;;;3.40;100.00;100818.56;5244849;28;20033;-86
2022/12/08 09:56:15;;;;;;;56.70;37.00;;;;;;;3.43;100.00;100816.66;5243908;28;20021;-85
2022/12/08 09:58:52;;;;;;;75.93;40.35;;;;;;;3.44;100.00;100806.03;5243723;28;20029;-85
2022/12/08 10:01:30;;;;;;;61.13;38.03;;;;;;;3.44;100.00;100816.56;5229342;28;20104;-85
2022/12/08 10:04:03;;;;;;;57.17;40.22;;;;;;;3.30;100.00;100811.31;5223333;28;20128;-86
2022/12/08 10:06:48;;;;;;;62.00;39.55;;;;;;;3.22;100.00;100812.63;5223205;28;20033;-86
2022/12/08 10:09:29;;;;;;;64.93;38.95;;;;;;;3.23;100.00;100808.22;5224053;28;20061;-85
2022/12/08 10:12:13;;;;;;;64.72;38.45;;;;;;;3.27;100.00;100808.88;5245001;28;20498;-86
2022/12/08 10:14:53;;;;;;;68.05;43.90;;;;;;;3.12;100.00;100801.00;5244061;28;20360;-86
2022/12/08 10:17:30;;;;;;;64.35;41.75;;;;;;;3.22;100.00;100804.72;5259934;28;20026;-85
2022/12/08 10:20:23;;;;;;;61.72;41.92;;;;;;;3.16;100.00;100793.72;5243515;28;20092;-85
2022/12/08 10:23:12;;;;;;;60.05;38.53;;;;;;;3.18;100.00;100800.59;5243893;28;20116;-86
2022/12/08 10:25:50;;;;;;;65.15;40.83;;;;;;;3.21;100.00;100803.03;5251269;28;20048;-86
2022/12/08 10:28:21;;;;;;;62.17;42.05;;;;;;;3.18;100.00;100791.84;5260678;28;20502;-86
2022/12/08 10:30:52;;;;;;;55.95;37.60;;;;;;;3.18;100.00;100792.69;5276974;28;20130;-86
2022/12/08 10:33:25;;;;;;;54.63;34.53;;;;;;;3.17;100.00;100784.88;5260601;28;20014;-86
2022/12/08 10:36:01;;;;;;;52.85;33.88;;;;;;;3.19;100.00;100786.47;5259851;28;20076;-86
2022/12/08 10:38:38;;;;;;;52.97;33.10;;;;;;;3.16;100.00;100788.47;5277984;28;20029;-86
2022/12/08 10:41:09;;;;;;;50.20;31.90;;;;;;;3.20;100.00;100785.50;5261569;28;20421;-86
2022/12/08 10:43:52;;;;;;;45.03;30.23;;;;;;;3.20;100.00;100790.78;5267776;28;20030;-86
2022/12/08 10:46:25;;;;;;;47.97;28.77;;;;;;;3.17;100.00;100792.78;5265877;28;20021;-86
2022/12/08 10:49:03;;;;;;;39.05;25.10;;;;;;;3.18;100.00;100790.03;5281770;28;20029;-86
2022/12/08 10:51:37;;;;;;;39.55;25.42;;;;;;;3.06;100.00;100793.44;5263699;28;20032;-86
2022/12/08 10:54:34;;;;;;;42.55;28.63;;;;;;;3.03;100.00;100791.88;5261174;28;20022;-86
2022/12/08 10:57:19;;;;;;;37.25;24.45;;;;;;;3.02;100.00;100790.16;5261784;28;20021;-86
2022/12/08 10:59:54;;;;;;;34.55;23.70;;;;;;;2.99;100.00;100800.88;5255212;28;20060;-86
2022/12/08 11:02:26;;;;;;;39.15;25.65;;;;;;;2.93;100.00;100797.78;5239302;28;20081;-86
2022/12/08 11:04:59;;;;;;;35.78;24.55;;;;;;;2.92;100.00;100790.81;5256584;28;20022;-86
2022/12/08 11:07:30;;;;;;;39.97;26.15;;;;;;;2.87;100.00;100785.81;5255860;28;20030;-86
2022/12/08 11:10:02;;;;;;;39.13;25.27;;;;;;;2.92;100.00;100775.84;5266092;28;20032;-86
2022/12/08 11:12:35;;;;;;;41.88;26.88;;;;;;;2.98;100.00;100775.50;5280364;28;20544;-86
2022/12/08 11:15:15;;;;;;;42.05;27.95;;;;;;;2.93;100.00;100772.28;5282014;28;20045;-86
2022/12/08 11:18:02;;;;;;;29.75;23.45;;;;;;;2.82;100.00;100772.09;5260507;28;20382;-86
2022/12/08 11:20:38;;;;;;;23.95;16.70;;;;;;;2.75;100.00;100773.41;5259527;28;20045;-86
2022/12/08 11:23:22;;;;;;;25.88;17.42;;;;;;;2.78;100.00;100767.97;5259809;28;20117;-86
2022/12/08 11:26:00;;;;;;;30.40;19.98;;;;;;;2.78;100.00;100771.44;5259463;28;20060;-86
2022/12/08 11:28:31;;;;;;;28.05;20.17;;;;;;;2.68;100.00;100770.28;5259267;28;20014;-86
2022/12/08 11:31:14;;;;;;;34.83;24.65;;;;;;;2.60;100.00;100757.59;5260905;28;20025;-86
2022/12/08 11:33:46;;;;;;;34.97;25.10;;;;;;;2.62;100.00;100749.63;5242604;28;20041;-86
2022/12/08 11:36:22;;;;;;;37.15;26.77;;;;;;;2.77;100.00;100746.03;5243439;28;20014;-86
2022/12/08 11:38:57;;;;;;;39.00;26.95;;;;;;;2.81;100.00;100751.97;5244821;28;20046;-86
2022/12/08 11:41:41;;;;;;;43.30;28.45;;;;;;;2.87;100.00;100753.38;5260958;28;20030;-86
2022/12/08 11:44:43;;;;;;;48.33;31.67;;;;;;;2.94;100.00;100750.25;5260358;28;20021;-86
2022/12/08 11:47:30;;;;;;;44.25;29.77;;;;;;;2.91;100.00;100737.28;5273725;28;20009;-86